sensor_id;sensor_type;location;lat;lon;timestamp;P1;durP1;ratioP1;P2;durP2;ratioP2
6121;SDS011;3091;51.506;7.672;2023-07-31T00:00:37;24.03;;;22.43;;
6121;SDS011;3091;51.506;7.672;2023-07-31T00:03:03;24.17;;;22.57;;
6121;SDS011;3091;51.506;7.672;2023-07-31T00:05:29;24.40;;;22.80;;
6121;SDS011;3091;51.506;7.672;2023-07-31T00:07:55;37.23;;;24.40;;
6121;SDS011;3091;51.506;7.672;2023-07-31T00:10:21;24.10;;;22.50;;
6121;SDS011;3091;51.506;7.672;2023-07-31T00:12:47;24.10;;;22.50;;
6121;SDS011;3091;51.506;7.672;2023-07-31T00:15:13;25.43;;;23.73;;
6121;SDS011;3091;51.506;7.672;2023-07-31T00:17:40;25.00;;;23.30;;
6121;SDS011;3091;51.506;7.672;2023-07-31T00:20:06;24.90;;;23.30;;
6121;SDS011;3091;51.506;7.672;2023-07-31T00:22:35;25.33;;;23.53;;
6121;SDS011;3091;51.506;7.672;2023-07-31T00:25:01;25.93;;;24.13;;
6121;SDS011;3091;51.506;7.672;2023-07-31T00:27:30;24.67;;;22.97;;
6121;SDS011;3091;51.506;7.672;2023-07-31T00:29:56;26.37;;;24.37;;
6121;SDS011;3091;51.506;7.672;2023-07-31T00:32:22;25.77;;;23.87;;
6121;SDS011;3091;51.506;7.672;2023-07-31T00:34:48;24.50;;;22.80;;
6121;SDS011;3091;51.506;7.672;2023-07-31T00:37:14;25.23;;;23.10;;
6121;SDS011;3091;51.506;7.672;2023-07-31T00:39:40;24.50;;;22.90;;
6121;SDS011;3091;51.506;7.672;2023-07-31T00:42:06;24.17;;;22.57;;
6121;SDS011;3091;51.506;7.672;2023-07-31T00:44:32;25.47;;;23.67;;
6121;SDS011;3091;51.506;7.672;2023-07-31T00:46:58;24.17;;;22.50;;
6121;SDS011;3091;51.506;7.672;2023-07-31T00:49:25;24.43;;;22.73;;
6121;SDS011;3091;51.506;7.672;2023-07-31T00:51:51;24.43;;;22.83;;
6121;SDS011;3091;51.506;7.672;2023-07-31T00:54:17;24.97;;;23.27;;
6121;SDS011;3091;51.506;7.672;2023-07-31T00:56:44;26.37;;;24.57;;
6121;SDS011;3091;51.506;7.672;2023-07-31T00:59:11;25.80;;;24.10;;
6121;SDS011;3091;51.506;7.672;2023-07-31T01:01:37;25.63;;;23.93;;
6121;SDS011;3091;51.506;7.672;2023-07-31T01:04:03;25.20;;;23.50;;
6121;SDS011;3091;51.506;7.672;2023-07-31T01:09:03;25.70;;;23.90;;
6121;SDS011;3091;51.506;7.672;2023-07-31T01:11:38;25.37;;;23.67;;
6121;SDS011;3091;51.506;7.672;2023-07-31T01:14:10;25.13;;;23.43;;
6121;SDS011;3091;51.506;7.672;2023-07-31T01:16:36;25.83;;;24.03;;
6121;SDS011;3091;51.506;7.672;2023-07-31T01:19:02;25.50;;;23.80;;
6121;SDS011;3091;51.506;7.672;2023-07-31T01:26:57;26.07;;;24.37;;
6121;SDS011;3091;51.506;7.672;2023-07-31T01:32:19;27.70;;;25.40;;
6121;SDS011;3091;51.506;7.672;2023-07-31T01:34:45;27.47;;;25.47;;
6121;SDS011;3091;51.506;7.672;2023-07-31T01:37:11;26.80;;;24.90;;
6121;SDS011;3091;51.506;7.672;2023-07-31T01:39:37;31.27;;;29.07;;
6121;SDS011;3091;51.506;7.672;2023-07-31T01:42:03;28.43;;;26.43;;
6121;SDS011;3091;51.506;7.672;2023-07-31T01:44:29;27.40;;;25.50;;
6121;SDS011;3091;51.506;7.672;2023-07-31T01:46:55;29.53;;;27.47;;
6121;SDS011;3091;51.506;7.672;2023-07-31T01:49:21;30.87;;;28.77;;
6121;SDS011;3091;51.506;7.672;2023-07-31T01:51:47;28.67;;;26.73;;
6121;SDS011;3091;51.506;7.672;2023-07-31T01:54:13;31.87;;;29.33;;
6121;SDS011;3091;51.506;7.672;2023-07-31T01:56:39;31.10;;;28.80;;
6121;SDS011;3091;51.506;7.672;2023-07-31T01:59:05;29.20;;;27.30;;
6121;SDS011;3091;51.506;7.672;2023-07-31T02:01:31;31.17;;;28.77;;
6121;SDS011;3091;51.506;7.672;2023-07-31T02:03:57;28.60;;;26.70;;
6121;SDS011;3091;51.506;7.672;2023-07-31T02:06:23;27.17;;;25.20;;
6121;SDS011;3091;51.506;7.672;2023-07-31T02:08:49;27.83;;;25.47;;
6121;SDS011;3091;51.506;7.672;2023-07-31T02:11:15;25.73;;;24.13;;
6121;SDS011;3091;51.506;7.672;2023-07-31T02:13:41;26.23;;;24.57;;
6121;SDS011;3091;51.506;7.672;2023-07-31T02:16:07;25.73;;;23.80;;
6121;SDS011;3091;51.506;7.672;2023-07-31T02:18:33;27.37;;;25.40;;
6121;SDS011;3091;51.506;7.672;2023-07-31T02:20:59;25.57;;;23.93;;
6121;SDS011;3091;51.506;7.672;2023-07-31T02:23:25;24.97;;;23.20;;
6121;SDS011;3091;51.506;7.672;2023-07-31T02:25:51;24.27;;;22.73;;
6121;SDS011;3091;51.506;7.672;2023-07-31T02:28:17;24.47;;;22.87;;
6121;SDS011;3091;51.506;7.672;2023-07-31T02:30:44;23.00;;;21.60;;
6121;SDS011;3091;51.506;7.672;2023-07-31T02:33:13;23.97;;;22.47;;
6121;SDS011;3091;51.506;7.672;2023-07-31T02:35:39;24.40;;;22.90;;
6121;SDS011;3091;51.506;7.672;2023-07-31T02:38:05;25.53;;;23.73;;
6121;SDS011;3091;51.506;7.672;2023-07-31T02:40:34;23.40;;;22.00;;
6121;SDS011;3091;51.506;7.672;2023-07-31T02:43:02;23.80;;;22.40;;
6121;SDS011;3091;51.506;7.672;2023-07-31T02:45:31;22.10;;;20.70;;
6121;SDS011;3091;51.506;7.672;2023-07-31T02:47:57;20.63;;;19.43;;
6121;SDS011;3091;51.506;7.672;2023-07-31T02:50:25;19.67;;;18.60;;
6121;SDS011;3091;51.506;7.672;2023-07-31T02:52:52;19.93;;;18.83;;
6121;SDS011;3091;51.506;7.672;2023-07-31T02:55:18;20.60;;;19.37;;
6121;SDS011;3091;51.506;7.672;2023-07-31T02:57:44;19.93;;;18.93;;
6121;SDS011;3091;51.506;7.672;2023-07-31T03:00:10;22.50;;;21.13;;
6121;SDS011;3091;51.506;7.672;2023-07-31T03:02:36;22.17;;;20.77;;
6121;SDS011;3091;51.506;7.672;2023-07-31T03:05:02;19.20;;;18.23;;
6121;SDS011;3091;51.506;7.672;2023-07-31T03:07:28;19.27;;;18.37;;
6121;SDS011;3091;51.506;7.672;2023-07-31T03:09:55;19.30;;;18.30;;
6121;SDS011;3091;51.506;7.672;2023-07-31T03:12:21;19.07;;;18.07;;
6121;SDS011;3091;51.506;7.672;2023-07-31T03:14:47;18.47;;;17.57;;
6121;SDS011;3091;51.506;7.672;2023-07-31T03:17:13;20.50;;;19.30;;
6121;SDS011;3091;51.506;7.672;2023-07-31T03:19:39;17.40;;;16.60;;
6121;SDS011;3091;51.506;7.672;2023-07-31T03:22:05;19.17;;;18.17;;
6121;SDS011;3091;51.506;7.672;2023-07-31T03:24:31;17.50;;;16.70;;
6121;SDS011;3091;51.506;7.672;2023-07-31T03:26:57;16.97;;;16.17;;
6121;SDS011;3091;51.506;7.672;2023-07-31T03:29:23;17.97;;;16.57;;
6121;SDS011;3091;51.506;7.672;2023-07-31T03:31:49;18.70;;;17.80;;
6121;SDS011;3091;51.506;7.672;2023-07-31T03:34:15;17.63;;;16.73;;
6121;SDS011;3091;51.506;7.672;2023-07-31T03:36:41;17.50;;;16.70;;
6121;SDS011;3091;51.506;7.672;2023-07-31T03:39:07;17.23;;;16.30;;
6121;SDS011;3091;51.506;7.672;2023-07-31T03:41:33;17.60;;;16.70;;
6121;SDS011;3091;51.506;7.672;2023-07-31T03:43:59;17.83;;;17.03;;
6121;SDS011;3091;51.506;7.672;2023-07-31T03:46:25;18.27;;;17.47;;
6121;SDS011;3091;51.506;7.672;2023-07-31T03:48:51;16.53;;;15.83;;
6121;SDS011;3091;51.506;7.672;2023-07-31T03:51:17;18.50;;;17.23;;
6121;SDS011;3091;51.506;7.672;2023-07-31T03:53:43;17.20;;;16.20;;
6121;SDS011;3091;51.506;7.672;2023-07-31T03:56:10;16.80;;;16.10;;
6121;SDS011;3091;51.506;7.672;2023-07-31T03:58:36;17.17;;;16.37;;
6121;SDS011;3091;51.506;7.672;2023-07-31T04:01:02;21.27;;;19.37;;
6121;SDS011;3091;51.506;7.672;2023-07-31T04:03:29;16.97;;;16.17;;
6121;SDS011;3091;51.506;7.672;2023-07-31T04:05:57;19.60;;;18.60;;
6121;SDS011;3091;51.506;7.672;2023-07-31T04:08:23;16.70;;;16.00;;
6121;SDS011;3091;51.506;7.672;2023-07-31T04:10:49;27.37;;;17.47;;
6121;SDS011;3091;51.506;7.672;2023-07-31T04:13:18;21.17;;;19.53;;
6121;SDS011;3091;51.506;7.672;2023-07-31T04:15:50;18.73;;;17.80;;
6121;SDS011;3091;51.506;7.672;2023-07-31T04:18:16;17.80;;;17.00;;
6121;SDS011;3091;51.506;7.672;2023-07-31T04:20:42;19.20;;;17.70;;
6121;SDS011;3091;51.506;7.672;2023-07-31T04:23:08;19.27;;;18.10;;
6121;SDS011;3091;51.506;7.672;2023-07-31T04:25:34;19.20;;;18.20;;
6121;SDS011;3091;51.506;7.672;2023-07-31T04:28:00;17.43;;;16.63;;
6121;SDS011;3091;51.506;7.672;2023-07-31T04:30:26;17.23;;;16.50;;
6121;SDS011;3091;51.506;7.672;2023-07-31T04:32:52;17.00;;;16.30;;
6121;SDS011;3091;51.506;7.672;2023-07-31T04:35:18;18.63;;;16.90;;
6121;SDS011;3091;51.506;7.672;2023-07-31T04:37:44;19.07;;;18.03;;
6121;SDS011;3091;51.506;7.672;2023-07-31T04:40:13;17.23;;;16.53;;
6121;SDS011;3091;51.506;7.672;2023-07-31T04:42:39;17.07;;;16.37;;
6121;SDS011;3091;51.506;7.672;2023-07-31T04:45:05;19.30;;;18.30;;
6121;SDS011;3091;51.506;7.672;2023-07-31T04:47:34;17.20;;;16.50;;
6121;SDS011;3091;51.506;7.672;2023-07-31T04:50:00;18.03;;;17.23;;
6121;SDS011;3091;51.506;7.672;2023-07-31T04:52:26;17.40;;;16.60;;
6121;SDS011;3091;51.506;7.672;2023-07-31T04:54:52;18.20;;;16.90;;
6121;SDS011;3091;51.506;7.672;2023-07-31T04:57:18;17.83;;;16.97;;
6121;SDS011;3091;51.506;7.672;2023-07-31T04:59:44;17.93;;;17.13;;
6121;SDS011;3091;51.506;7.672;2023-07-31T05:02:11;18.53;;;17.47;;
6121;SDS011;3091;51.506;7.672;2023-07-31T05:04:38;17.87;;;17.07;;
6121;SDS011;3091;51.506;7.672;2023-07-31T05:07:04;17.70;;;16.90;;
6121;SDS011;3091;51.506;7.672;2023-07-31T05:09:30;18.77;;;17.97;;
6121;SDS011;3091;51.506;7.672;2023-07-31T05:11:56;19.80;;;18.90;;
6121;SDS011;3091;51.506;7.672;2023-07-31T05:14:22;20.77;;;19.67;;
6121;SDS011;3091;51.506;7.672;2023-07-31T05:16:48;18.60;;;17.70;;
6121;SDS011;3091;51.506;7.672;2023-07-31T05:19:14;18.77;;;17.97;;
6121;SDS011;3091;51.506;7.672;2023-07-31T05:21:40;18.93;;;18.03;;
6121;SDS011;3091;51.506;7.672;2023-07-31T05:24:06;18.63;;;17.83;;
6121;SDS011;3091;51.506;7.672;2023-07-31T05:26:34;23.10;;;21.70;;
6121;SDS011;3091;51.506;7.672;2023-07-31T05:29:00;24.70;;;23.40;;
6121;SDS011;3091;51.506;7.672;2023-07-31T05:31:26;25.30;;;23.90;;
6121;SDS011;3091;51.506;7.672;2023-07-31T05:33:53;22.50;;;21.30;;
6121;SDS011;3091;51.506;7.672;2023-07-31T05:36:19;21.17;;;20.17;;
6121;SDS011;3091;51.506;7.672;2023-07-31T05:38:45;20.13;;;19.13;;
6121;SDS011;3091;51.506;7.672;2023-07-31T05:41:11;20.00;;;19.00;;
6121;SDS011;3091;51.506;7.672;2023-07-31T05:43:38;19.57;;;18.57;;
6121;SDS011;3091;51.506;7.672;2023-07-31T05:46:04;19.80;;;18.80;;
6121;SDS011;3091;51.506;7.672;2023-07-31T05:48:31;18.67;;;17.77;;
6121;SDS011;3091;51.506;7.672;2023-07-31T05:50:59;19.07;;;18.07;;
6121;SDS011;3091;51.506;7.672;2023-07-31T05:53:25;17.57;;;16.77;;
6121;SDS011;3091;51.506;7.672;2023-07-31T05:55:51;18.30;;;17.50;;
6121;SDS011;3091;51.506;7.672;2023-07-31T05:58:17;18.97;;;17.23;;
6121;SDS011;3091;51.506;7.672;2023-07-31T06:00:43;18.37;;;17.47;;
6121;SDS011;3091;51.506;7.672;2023-07-31T06:03:09;17.40;;;16.60;;
6121;SDS011;3091;51.506;7.672;2023-07-31T06:05:35;20.03;;;18.70;;
6121;SDS011;3091;51.506;7.672;2023-07-31T06:08:01;18.40;;;17.50;;
6121;SDS011;3091;51.506;7.672;2023-07-31T06:10:27;26.20;;;24.60;;
6121;SDS011;3091;51.506;7.672;2023-07-31T06:12:53;25.00;;;23.60;;
6121;SDS011;3091;51.506;7.672;2023-07-31T06:15:19;28.10;;;26.40;;
6121;SDS011;3091;51.506;7.672;2023-07-31T06:17:45;31.40;;;29.20;;
6121;SDS011;3091;51.506;7.672;2023-07-31T06:20:11;31.93;;;29.30;;
6121;SDS011;3091;51.506;7.672;2023-07-31T06:22:38;28.97;;;27.07;;
6121;SDS011;3091;51.506;7.672;2023-07-31T06:25:04;25.83;;;24.33;;
6121;SDS011;3091;51.506;7.672;2023-07-31T06:27:30;23.37;;;22.07;;
6121;SDS011;3091;51.506;7.672;2023-07-31T06:29:56;20.83;;;19.73;;
6121;SDS011;3091;51.506;7.672;2023-07-31T06:32:22;22.47;;;21.20;;
6121;SDS011;3091;51.506;7.672;2023-07-31T06:34:48;19.80;;;18.80;;
6121;SDS011;3091;51.506;7.672;2023-07-31T06:37:14;21.67;;;20.20;;
6121;SDS011;3091;51.506;7.672;2023-07-31T06:39:40;21.13;;;20.03;;
6121;SDS011;3091;51.506;7.672;2023-07-31T06:42:06;20.93;;;19.83;;
6121;SDS011;3091;51.506;7.672;2023-07-31T06:44:32;20.07;;;18.87;;
6121;SDS011;3091;51.506;7.672;2023-07-31T06:46:58;19.20;;;18.30;;
6121;SDS011;3091;51.506;7.672;2023-07-31T06:49:24;19.63;;;18.73;;
6121;SDS011;3091;51.506;7.672;2023-07-31T06:51:50;18.67;;;17.87;;
6121;SDS011;3091;51.506;7.672;2023-07-31T06:54:16;18.87;;;17.97;;
6121;SDS011;3091;51.506;7.672;2023-07-31T06:56:42;19.53;;;18.47;;
6121;SDS011;3091;51.506;7.672;2023-07-31T06:59:08;26.30;;;25.00;;
6121;SDS011;3091;51.506;7.672;2023-07-31T07:01:36;48.77;;;46.07;;
6121;SDS011;3091;51.506;7.672;2023-07-31T07:04:02;63.50;;;59.90;;
6121;SDS011;3091;51.506;7.672;2023-07-31T07:06:28;66.73;;;62.83;;
6121;SDS011;3091;51.506;7.672;2023-07-31T07:08:54;69.00;;;65.10;;
6121;SDS011;3091;51.506;7.672;2023-07-31T07:11:20;74.77;;;70.77;;
6121;SDS011;3091;51.506;7.672;2023-07-31T07:13:46;66.57;;;62.67;;
6121;SDS011;3091;51.506;7.672;2023-07-31T07:16:12;63.83;;;60.03;;
6121;SDS011;3091;51.506;7.672;2023-07-31T07:18:38;64.83;;;61.03;;
6121;SDS011;3091;51.506;7.672;2023-07-31T07:21:04;65.43;;;61.63;;
6121;SDS011;3091;51.506;7.672;2023-07-31T07:23:30;66.10;;;62.30;;
6121;SDS011;3091;51.506;7.672;2023-07-31T07:25:56;65.20;;;61.50;;
6121;SDS011;3091;51.506;7.672;2023-07-31T07:28:22;63.37;;;59.57;;
6121;SDS011;3091;51.506;7.672;2023-07-31T07:30:52;64.93;;;61.13;;
6121;SDS011;3091;51.506;7.672;2023-07-31T07:33:21;61.93;;;58.23;;
6121;SDS011;3091;51.506;7.672;2023-07-31T07:35:47;62.53;;;58.83;;
6121;SDS011;3091;51.506;7.672;2023-07-31T07:38:14;68.20;;;64.20;;
6121;SDS011;3091;51.506;7.672;2023-07-31T07:40:46;66.00;;;61.70;;
6121;SDS011;3091;51.506;7.672;2023-07-31T07:43:15;67.97;;;63.90;;
6121;SDS011;3091;51.506;7.672;2023-07-31T07:45:41;60.40;;;56.70;;
6121;SDS011;3091;51.506;7.672;2023-07-31T07:48:07;57.70;;;53.90;;
6121;SDS011;3091;51.506;7.672;2023-07-31T07:50:33;58.60;;;54.90;;
6121;SDS011;3091;51.506;7.672;2023-07-31T07:52:59;52.53;;;49.03;;
6121;SDS011;3091;51.506;7.672;2023-07-31T07:55:25;54.10;;;50.40;;
6121;SDS011;3091;51.506;7.672;2023-07-31T07:57:51;54.27;;;50.57;;
6121;SDS011;3091;51.506;7.672;2023-07-31T08:00:17;57.03;;;53.30;;
6121;SDS011;3091;51.506;7.672;2023-07-31T08:02:43;60.10;;;56.30;;
6121;SDS011;3091;51.506;7.672;2023-07-31T08:05:10;56.20;;;52.60;;
6121;SDS011;3091;51.506;7.672;2023-07-31T08:07:36;52.67;;;49.17;;
6121;SDS011;3091;51.506;7.672;2023-07-31T08:10:02;54.40;;;50.70;;
6121;SDS011;3091;51.506;7.672;2023-07-31T08:12:28;49.33;;;46.03;;
6121;SDS011;3091;51.506;7.672;2023-07-31T08:14:54;51.30;;;47.70;;
6121;SDS011;3091;51.506;7.672;2023-07-31T08:17:22;51.50;;;48.00;;
6121;SDS011;3091;51.506;7.672;2023-07-31T08:19:48;50.30;;;46.50;;
6121;SDS011;3091;51.506;7.672;2023-07-31T08:22:14;56.40;;;52.23;;
6121;SDS011;3091;51.506;7.672;2023-07-31T08:24:40;57.50;;;53.80;;
6121;SDS011;3091;51.506;7.672;2023-07-31T08:27:06;59.80;;;56.20;;
6121;SDS011;3091;51.506;7.672;2023-07-31T08:29:32;61.40;;;57.70;;
6121;SDS011;3091;51.506;7.672;2023-07-31T08:31:58;54.50;;;50.77;;
6121;SDS011;3091;51.506;7.672;2023-07-31T08:34:24;62.80;;;58.80;;
6121;SDS011;3091;51.506;7.672;2023-07-31T08:36:51;72.80;;;68.70;;
6121;SDS011;3091;51.506;7.672;2023-07-31T08:39:17;64.90;;;61.00;;
6121;SDS011;3091;51.506;7.672;2023-07-31T08:41:43;52.30;;;48.80;;
6121;SDS011;3091;51.506;7.672;2023-07-31T08:44:10;55.70;;;51.90;;
6121;SDS011;3091;51.506;7.672;2023-07-31T08:46:36;54.70;;;51.20;;
6121;SDS011;3091;51.506;7.672;2023-07-31T08:49:05;67.20;;;63.20;;
6121;SDS011;3091;51.506;7.672;2023-07-31T08:51:36;69.30;;;65.20;;
6121;SDS011;3091;51.506;7.672;2023-07-31T08:54:02;76.67;;;71.73;;
6121;SDS011;3091;51.506;7.672;2023-07-31T08:56:32;77.33;;;73.03;;
6121;SDS011;3091;51.506;7.672;2023-07-31T08:58:58;60.50;;;56.80;;
6121;SDS011;3091;51.506;7.672;2023-07-31T09:01:25;65.50;;;61.60;;
6121;SDS011;3091;51.506;7.672;2023-07-31T09:03:51;76.20;;;72.00;;
6121;SDS011;3091;51.506;7.672;2023-07-31T09:06:18;71.53;;;67.53;;
6121;SDS011;3091;51.506;7.672;2023-07-31T09:08:48;70.63;;;66.73;;
6121;SDS011;3091;51.506;7.672;2023-07-31T09:11:14;74.47;;;70.47;;
6121;SDS011;3091;51.506;7.672;2023-07-31T09:13:41;76.30;;;72.20;;
6121;SDS011;3091;51.506;7.672;2023-07-31T09:16:08;75.03;;;70.73;;
6121;SDS011;3091;51.506;7.672;2023-07-31T09:18:54;80.00;;;75.80;;
6121;SDS011;3091;51.506;7.672;2023-07-31T09:21:21;84.43;;;79.93;;
6121;SDS011;3091;51.506;7.672;2023-07-31T09:23:47;77.60;;;73.30;;
6121;SDS011;3091;51.506;7.672;2023-07-31T09:26:33;70.90;;;66.70;;
6121;SDS011;3091;51.506;7.672;2023-07-31T09:29:00;63.07;;;59.17;;
6121;SDS011;3091;51.506;7.672;2023-07-31T09:31:33;57.23;;;53.63;;
6121;SDS011;3091;51.506;7.672;2023-07-31T09:33:59;55.00;;;51.40;;
6121;SDS011;3091;51.506;7.672;2023-07-31T09:36:28;59.30;;;55.50;;
6121;SDS011;3091;51.506;7.672;2023-07-31T09:38:55;53.97;;;50.37;;
6121;SDS011;3091;51.506;7.672;2023-07-31T09:41:21;51.33;;;48.03;;
6121;SDS011;3091;51.506;7.672;2023-07-31T09:43:54;49.97;;;46.10;;
6121;SDS011;3091;51.506;7.672;2023-07-31T09:46:20;50.67;;;47.37;;
6121;SDS011;3091;51.506;7.672;2023-07-31T09:48:49;51.00;;;47.70;;
6121;SDS011;3091;51.506;7.672;2023-07-31T09:51:15;49.30;;;46.00;;
6121;SDS011;3091;51.506;7.672;2023-07-31T09:53:41;50.87;;;47.47;;
6121;SDS011;3091;51.506;7.672;2023-07-31T09:56:07;59.83;;;56.23;;
6121;SDS011;3091;51.506;7.672;2023-07-31T09:58:34;70.97;;;67.07;;
6121;SDS011;3091;51.506;7.672;2023-07-31T10:01:01;66.97;;;63.10;;
6121;SDS011;3091;51.506;7.672;2023-07-31T10:03:30;54.40;;;50.93;;
6121;SDS011;3091;51.506;7.672;2023-07-31T10:06:00;69.67;;;65.50;;
6121;SDS011;3091;51.506;7.672;2023-07-31T10:08:28;66.17;;;62.17;;
6121;SDS011;3091;51.506;7.672;2023-07-31T10:10:58;66.13;;;62.23;;
6121;SDS011;3091;51.506;7.672;2023-07-31T10:13:24;59.80;;;56.10;;
6121;SDS011;3091;51.506;7.672;2023-07-31T10:15:51;53.70;;;50.30;;
6121;SDS011;3091;51.506;7.672;2023-07-31T10:18:17;49.87;;;46.40;;
6121;SDS011;3091;51.506;7.672;2023-07-31T10:20:44;48.50;;;45.20;;
6121;SDS011;3091;51.506;7.672;2023-07-31T10:23:10;57.70;;;54.00;;
6121;SDS011;3091;51.506;7.672;2023-07-31T10:25:36;60.40;;;56.70;;
6121;SDS011;3091;51.506;7.672;2023-07-31T10:28:02;65.07;;;61.07;;
6121;SDS011;3091;51.506;7.672;2023-07-31T10:30:29;75.20;;;71.10;;
6121;SDS011;3091;51.506;7.672;2023-07-31T10:32:55;64.13;;;60.33;;
6121;SDS011;3091;51.506;7.672;2023-07-31T10:35:21;63.97;;;60.17;;
6121;SDS011;3091;51.506;7.672;2023-07-31T10:37:47;63.40;;;59.50;;
6121;SDS011;3091;51.506;7.672;2023-07-31T10:40:24;60.20;;;56.40;;
6121;SDS011;3091;51.506;7.672;2023-07-31T10:42:51;65.43;;;61.20;;
6121;SDS011;3091;51.506;7.672;2023-07-31T10:47:59;80.57;;;75.97;;
6121;SDS011;3091;51.506;7.672;2023-07-31T10:50:26;80.23;;;75.73;;
6121;SDS011;3091;51.506;7.672;2023-07-31T10:52:53;75.40;;;70.90;;
6121;SDS011;3091;51.506;7.672;2023-07-31T10:58:00;72.50;;;68.10;;
6121;SDS011;3091;51.506;7.672;2023-07-31T11:00:31;67.60;;;63.30;;
6121;SDS011;3091;51.506;7.672;2023-07-31T11:03:10;64.40;;;60.20;;
6121;SDS011;3091;51.506;7.672;2023-07-31T11:05:50;63.53;;;59.43;;
6121;SDS011;3091;51.506;7.672;2023-07-31T11:08:19;56.13;;;52.33;;
6121;SDS011;3091;51.506;7.672;2023-07-31T11:10:47;52.70;;;49.10;;
6121;SDS011;3091;51.506;7.672;2023-07-31T11:13:13;58.87;;;54.97;;
6121;SDS011;3091;51.506;7.672;2023-07-31T11:15:39;66.93;;;62.83;;
6121;SDS011;3091;51.506;7.672;2023-07-31T11:18:05;65.33;;;61.33;;
6121;SDS011;3091;51.506;7.672;2023-07-31T11:20:35;59.30;;;55.60;;
6121;SDS011;3091;51.506;7.672;2023-07-31T11:23:08;55.87;;;52.27;;
6121;SDS011;3091;51.506;7.672;2023-07-31T11:25:35;60.00;;;56.20;;
6121;SDS011;3091;51.506;7.672;2023-07-31T11:28:02;58.50;;;54.80;;
6121;SDS011;3091;51.506;7.672;2023-07-31T11:30:28;51.73;;;48.33;;
6121;SDS011;3091;51.506;7.672;2023-07-31T11:32:55;53.10;;;49.50;;
6121;SDS011;3091;51.506;7.672;2023-07-31T11:35:21;52.87;;;49.37;;
6121;SDS011;3091;51.506;7.672;2023-07-31T11:37:47;50.60;;;47.10;;
6121;SDS011;3091;51.506;7.672;2023-07-31T11:40:14;45.30;;;42.20;;
6121;SDS011;3091;51.506;7.672;2023-07-31T11:42:40;48.37;;;45.17;;
6121;SDS011;3091;51.506;7.672;2023-07-31T11:45:07;46.40;;;43.20;;
6121;SDS011;3091;51.506;7.672;2023-07-31T11:47:34;41.53;;;38.63;;
6121;SDS011;3091;51.506;7.672;2023-07-31T11:50:00;42.53;;;39.53;;
6121;SDS011;3091;51.506;7.672;2023-07-31T11:52:27;44.40;;;41.40;;
6121;SDS011;3091;51.506;7.672;2023-07-31T11:54:54;43.80;;;40.80;;
6121;SDS011;3091;51.506;7.672;2023-07-31T11:57:20;40.20;;;37.50;;
6121;SDS011;3091;51.506;7.672;2023-07-31T11:59:46;42.23;;;39.53;;
6121;SDS011;3091;51.506;7.672;2023-07-31T12:02:12;39.00;;;36.40;;
6121;SDS011;3091;51.506;7.672;2023-07-31T12:04:38;37.70;;;35.27;;
6121;SDS011;3091;51.506;7.672;2023-07-31T12:07:04;36.80;;;34.50;;
6121;SDS011;3091;51.506;7.672;2023-07-31T12:09:30;39.43;;;37.03;;
6121;SDS011;3091;51.506;7.672;2023-07-31T12:11:56;38.40;;;36.10;;
6121;SDS011;3091;51.506;7.672;2023-07-31T12:14:28;36.17;;;33.97;;
6121;SDS011;3091;51.506;7.672;2023-07-31T12:16:55;31.23;;;29.43;;
6121;SDS011;3091;51.506;7.672;2023-07-31T12:19:22;29.17;;;27.53;;
6121;SDS011;3091;51.506;7.672;2023-07-31T12:21:48;27.90;;;26.30;;
6121;SDS011;3091;51.506;7.672;2023-07-31T12:24:17;26.10;;;24.60;;
6121;SDS011;3091;51.506;7.672;2023-07-31T12:26:45;26.60;;;25.13;;
6121;SDS011;3091;51.506;7.672;2023-07-31T12:29:11;23.50;;;22.30;;
6121;SDS011;3091;51.506;7.672;2023-07-31T12:31:40;22.00;;;20.90;;
6121;SDS011;3091;51.506;7.672;2023-07-31T12:34:14;19.60;;;18.70;;
6121;SDS011;3091;51.506;7.672;2023-07-31T12:36:41;19.80;;;18.90;;
6121;SDS011;3091;51.506;7.672;2023-07-31T12:39:08;19.40;;;18.50;;
6121;SDS011;3091;51.506;7.672;2023-07-31T12:41:34;18.70;;;17.90;;
6121;SDS011;3091;51.506;7.672;2023-07-31T12:44:00;17.30;;;16.60;;
6121;SDS011;3091;51.506;7.672;2023-07-31T12:46:26;17.50;;;16.70;;
6121;SDS011;3091;51.506;7.672;2023-07-31T12:48:52;16.43;;;15.83;;
6121;SDS011;3091;51.506;7.672;2023-07-31T12:51:20;17.90;;;17.20;;
6121;SDS011;3091;51.506;7.672;2023-07-31T12:53:46;18.03;;;17.23;;
6121;SDS011;3091;51.506;7.672;2023-07-31T12:56:12;17.93;;;17.13;;
6121;SDS011;3091;51.506;7.672;2023-07-31T12:58:38;18.40;;;17.60;;
6121;SDS011;3091;51.506;7.672;2023-07-31T13:01:04;17.90;;;17.10;;
6121;SDS011;3091;51.506;7.672;2023-07-31T13:03:33;17.80;;;17.00;;
6121;SDS011;3091;51.506;7.672;2023-07-31T13:05:59;20.30;;;19.40;;
6121;SDS011;3091;51.506;7.672;2023-07-31T13:08:28;24.13;;;22.93;;
6121;SDS011;3091;51.506;7.672;2023-07-31T13:10:54;25.50;;;24.20;;
6121;SDS011;3091;51.506;7.672;2023-07-31T13:13:20;26.67;;;25.23;;
6121;SDS011;3091;51.506;7.672;2023-07-31T13:15:47;30.50;;;28.67;;
6121;SDS011;3091;51.506;7.672;2023-07-31T13:18:13;32.40;;;30.40;;
6121;SDS011;3091;51.506;7.672;2023-07-31T13:20:39;32.77;;;30.87;;
6121;SDS011;3091;51.506;7.672;2023-07-31T13:23:05;33.40;;;31.50;;
6121;SDS011;3091;51.506;7.672;2023-07-31T13:25:31;30.53;;;28.77;;
6121;SDS011;3091;51.506;7.672;2023-07-31T13:27:57;26.10;;;24.60;;
6121;SDS011;3091;51.506;7.672;2023-07-31T13:30:23;22.63;;;21.37;;
6121;SDS011;3091;51.506;7.672;2023-07-31T13:32:49;19.47;;;18.47;;
6121;SDS011;3091;51.506;7.672;2023-07-31T13:35:15;18.90;;;18.00;;
6121;SDS011;3091;51.506;7.672;2023-07-31T13:37:41;19.30;;;18.40;;
6121;SDS011;3091;51.506;7.672;2023-07-31T13:40:07;19.13;;;18.30;;
6121;SDS011;3091;51.506;7.672;2023-07-31T13:42:33;18.23;;;17.43;;
6121;SDS011;3091;51.506;7.672;2023-07-31T13:44:59;18.90;;;18.10;;
6121;SDS011;3091;51.506;7.672;2023-07-31T13:47:25;21.40;;;20.40;;
6121;SDS011;3091;51.506;7.672;2023-07-31T13:49:51;21.70;;;20.60;;
6121;SDS011;3091;51.506;7.672;2023-07-31T13:52:17;23.60;;;22.50;;
6121;SDS011;3091;51.506;7.672;2023-07-31T13:54:43;24.80;;;23.50;;
6121;SDS011;3091;51.506;7.672;2023-07-31T13:57:09;26.13;;;24.63;;
6121;SDS011;3091;51.506;7.672;2023-07-31T13:59:35;26.40;;;24.90;;
6121;SDS011;3091;51.506;7.672;2023-07-31T14:02:02;25.77;;;24.27;;
6121;SDS011;3091;51.506;7.672;2023-07-31T14:04:28;26.53;;;25.03;;
6121;SDS011;3091;51.506;7.672;2023-07-31T14:06:55;26.20;;;24.70;;
6121;SDS011;3091;51.506;7.672;2023-07-31T14:09:21;20.37;;;19.37;;
6121;SDS011;3091;51.506;7.672;2023-07-31T14:11:47;19.20;;;18.30;;
6121;SDS011;3091;51.506;7.672;2023-07-31T14:14:13;18.90;;;18.10;;
6121;SDS011;3091;51.506;7.672;2023-07-31T14:16:39;18.53;;;17.73;;
6121;SDS011;3091;51.506;7.672;2023-07-31T14:19:05;18.30;;;17.50;;
6121;SDS011;3091;51.506;7.672;2023-07-31T14:21:33;17.83;;;17.03;;
6121;SDS011;3091;51.506;7.672;2023-07-31T14:23:59;17.03;;;16.33;;
6121;SDS011;3091;51.506;7.672;2023-07-31T14:26:25;16.90;;;16.20;;
6121;SDS011;3091;51.506;7.672;2023-07-31T14:28:51;16.70;;;16.00;;
6121;SDS011;3091;51.506;7.672;2023-07-31T14:31:19;16.67;;;15.97;;
6121;SDS011;3091;51.506;7.672;2023-07-31T14:33:45;17.00;;;16.30;;
6121;SDS011;3091;51.506;7.672;2023-07-31T14:36:11;16.67;;;15.97;;
6121;SDS011;3091;51.506;7.672;2023-07-31T14:38:37;15.17;;;14.57;;
6121;SDS011;3091;51.506;7.672;2023-07-31T14:41:03;15.10;;;14.50;;
6121;SDS011;3091;51.506;7.672;2023-07-31T14:43:32;15.90;;;15.30;;
6121;SDS011;3091;51.506;7.672;2023-07-31T14:45:58;15.70;;;15.00;;
6121;SDS011;3091;51.506;7.672;2023-07-31T14:48:25;15.87;;;15.23;;
6121;SDS011;3091;51.506;7.672;2023-07-31T14:50:51;16.80;;;16.07;;
6121;SDS011;3091;51.506;7.672;2023-07-31T14:53:17;15.37;;;14.70;;
6121;SDS011;3091;51.506;7.672;2023-07-31T14:55:43;13.60;;;13.10;;
6121;SDS011;3091;51.506;7.672;2023-07-31T14:58:10;13.47;;;13.07;;
6121;SDS011;3091;51.506;7.672;2023-07-31T15:00:36;13.93;;;13.43;;